createdAt,value
2022-11-30T00:01:31.679Z,55.00
2022-11-30T00:03:59.430Z,57.00
2022-11-30T00:06:27.061Z,56.60
2022-11-30T00:08:55.706Z,58.50
2022-11-30T00:11:24.574Z,56.10
2022-11-30T00:13:52.737Z,58.40
2022-11-30T00:16:20.759Z,58.40
2022-11-30T00:18:48.555Z,56.40
2022-11-30T00:21:16.352Z,57.30
2022-11-30T00:23:45.066Z,57.80
2022-11-30T00:26:14.732Z,64.90
2022-11-30T00:28:43.411Z,62.20
2022-11-30T00:31:12.672Z,57.70
2022-11-30T00:33:40.577Z,61.40
2022-11-30T00:36:10.831Z,60.30
2022-11-30T00:38:38.940Z,59.70
2022-11-30T00:41:07.348Z,63.10
2022-11-30T00:43:35.048Z,68.90
2022-11-30T00:46:02.882Z,63.90
2022-11-30T00:48:30.596Z,61.40
2022-11-30T00:50:58.490Z,65.70
2022-11-30T00:53:26.265Z,54.70
2022-11-30T00:55:54.712Z,57.90
2022-11-30T00:58:22.871Z,67.00
2022-11-30T01:00:51.197Z,69.40
2022-11-30T01:03:18.840Z,59.40
2022-11-30T01:05:46.515Z,59.50
2022-11-30T01:08:14.279Z,65.10
2022-11-30T01:10:42.881Z,64.50
2022-11-30T01:13:12.161Z,68.70
2022-11-30T01:15:41.315Z,64.90
2022-11-30T01:18:09.530Z,67.70
2022-11-30T01:20:40.317Z,62.90
2022-11-30T01:23:08.077Z,68.30
2022-11-30T01:25:35.790Z,63.20
2022-11-30T01:28:03.689Z,71.80
2022-11-30T01:30:31.450Z,66.30
2022-11-30T01:33:03.578Z,65.60
2022-11-30T01:35:31.461Z,70.60
2022-11-30T01:37:59.222Z,69.80
2022-11-30T01:40:27.084Z,70.20
2022-11-30T01:42:55.245Z,66.80
2022-11-30T01:45:23.016Z,63.20
2022-11-30T01:47:56.521Z,70.50
2022-11-30T01:50:29.481Z,63.50
2022-11-30T01:52:57.777Z,68.10
2022-11-30T01:55:29.800Z,63.30
2022-11-30T01:57:59.855Z,67.10
2022-11-30T02:00:27.929Z,65.50
2022-11-30T02:02:56.178Z,69.10
2022-11-30T02:05:24.811Z,69.10
2022-11-30T02:07:53.029Z,65.40
2022-11-30T02:10:28.705Z,67.70
2022-11-30T02:13:14.391Z,63.10
2022-11-30T02:15:55.226Z,73.30
2022-11-30T02:18:37.779Z,73.90
2022-11-30T02:21:15.519Z,61.80
2022-11-30T02:24:00.034Z,71.30
2022-11-30T02:26:33.893Z,66.10
2022-11-30T02:29:04.466Z,71.60
2022-11-30T02:31:41.174Z,68.20
2022-11-30T02:34:09.918Z,70.00
2022-11-30T02:36:37.703Z,66.80
2022-11-30T02:39:06.005Z,69.60
2022-11-30T02:41:40.364Z,66.40
2022-11-30T02:44:09.982Z,65.70
2022-11-30T02:46:37.579Z,62.40
2022-11-30T02:49:09.298Z,68.70
2022-11-30T02:51:38.186Z,68.00
2022-11-30T02:54:06.052Z,71.90
2022-11-30T02:56:33.852Z,71.90
2022-11-30T02:59:01.670Z,75.60
2022-11-30T03:01:29.507Z,70.70
2022-11-30T03:03:57.513Z,69.90
2022-11-30T03:06:25.300Z,70.00
2022-11-30T03:08:53.452Z,66.50
2022-11-30T03:11:21.347Z,66.80
2022-11-30T03:13:49.082Z,69.00
2022-11-30T03:16:16.746Z,71.80
2022-11-30T03:18:44.615Z,73.40
2022-11-30T03:21:13.129Z,76.40
2022-11-30T03:23:41.111Z,68.30
2022-11-30T03:26:09.572Z,68.50
2022-11-30T03:28:37.604Z,74.60
2022-11-30T03:31:05.875Z,76.70
2022-11-30T03:33:33.856Z,66.60
2022-11-30T03:36:06.337Z,73.70
2022-11-30T03:38:35.619Z,64.40
2022-11-30T03:41:04.744Z,74.00
2022-11-30T03:43:33.023Z,70.90
2022-11-30T03:46:01.251Z,72.80
2022-11-30T03:48:29.131Z,78.40
2022-11-30T03:50:57.332Z,79.10
2022-11-30T03:53:25.505Z,70.40
2022-11-30T03:55:57.855Z,78.00
2022-11-30T03:58:26.330Z,70.70
2022-11-30T04:01:01.776Z,72.90
2022-11-30T04:03:29.944Z,67.20
2022-11-30T04:05:57.997Z,75.90
2022-11-30T04:08:26.169Z,68.70
2022-11-30T04:10:55.921Z,77.00
2022-11-30T04:13:24.749Z,69.80
2022-11-30T04:15:53.628Z,82.30
2022-11-30T04:18:22.362Z,70.40
2022-11-30T04:20:50.696Z,63.20
2022-11-30T04:23:18.911Z,66.80
2022-11-30T04:25:48.147Z,74.10
2022-11-30T04:28:17.102Z,83.20
2022-11-30T04:30:45.990Z,70.40
2022-11-30T04:33:14.707Z,62.30
2022-11-30T04:35:44.281Z,70.00
2022-11-30T04:38:12.359Z,68.90
2022-11-30T04:40:41.053Z,69.00
2022-11-30T04:43:09.008Z,65.20
2022-11-30T04:45:36.852Z,66.40
2022-11-30T04:48:05.350Z,62.80
2022-11-30T04:50:33.374Z,68.90
2022-11-30T04:53:01.062Z,69.40
2022-11-30T04:55:29.417Z,65.00
2022-11-30T04:57:57.123Z,75.90
2022-11-30T05:00:25.706Z,66.30
2022-11-30T05:02:55.621Z,67.80
2022-11-30T05:05:23.418Z,66.30
2022-11-30T05:07:55.127Z,79.60
2022-11-30T05:10:23.613Z,71.90
2022-11-30T05:12:52.824Z,62.40
2022-11-30T05:15:20.987Z,62.00
2022-11-30T05:17:48.852Z,65.20
2022-11-30T05:20:17.172Z,70.40
2022-11-30T05:22:45.016Z,70.10
2022-11-30T05:25:12.860Z,66.40
2022-11-30T05:27:41.068Z,63.70
2022-11-30T05:30:10.185Z,64.70
2022-11-30T05:32:37.829Z,62.60
2022-11-30T05:35:06.231Z,73.40
2022-11-30T05:37:34.137Z,69.80
2022-11-30T05:40:01.825Z,72.40
2022-11-30T05:42:29.407Z,67.10
2022-11-30T05:44:57.115Z,73.90
2022-11-30T05:47:24.981Z,63.70
2022-11-30T05:49:52.643Z,64.50
2022-11-30T05:52:20.411Z,61.20
2022-11-30T05:54:48.312Z,63.90
2022-11-30T05:57:16.036Z,62.90
2022-11-30T05:59:43.837Z,64.10
2022-11-30T06:02:11.726Z,64.60
2022-11-30T06:04:40.465Z,65.90
2022-11-30T06:07:11.924Z,63.10
2022-11-30T06:09:40.381Z,60.90
2022-11-30T06:12:08.386Z,58.20
2022-11-30T06:14:36.221Z,66.80
2022-11-30T06:17:03.949Z,60.50
2022-11-30T06:19:31.944Z,64.70
2022-11-30T06:21:59.771Z,63.80
2022-11-30T06:24:27.429Z,64.00
2022-11-30T06:26:55.245Z,60.40
2022-11-30T06:29:23.817Z,66.20
2022-11-30T06:31:51.713Z,68.00
2022-11-30T06:34:20.343Z,67.60
2022-11-30T06:36:49.769Z,64.50
2022-11-30T06:39:26.925Z,64.80
2022-11-30T06:42:05.182Z,65.20
2022-11-30T06:44:32.972Z,58.50
2022-11-30T06:47:00.688Z,57.40
2022-11-30T06:49:28.451Z,66.90
2022-11-30T06:51:56.824Z,57.40
2022-11-30T06:54:25.001Z,68.70
2022-11-30T06:56:52.694Z,59.60
2022-11-30T06:59:20.430Z,57.40
2022-11-30T07:01:48.037Z,57.40
2022-11-30T07:04:15.821Z,56.50
2022-11-30T07:06:43.623Z,54.60
2022-11-30T07:09:13.527Z,56.60
2022-11-30T07:11:41.693Z,52.10
2022-11-30T07:14:09.361Z,55.50
2022-11-30T07:16:37.085Z,53.40
2022-11-30T07:19:05.111Z,54.80
2022-11-30T07:21:32.714Z,59.60
2022-11-30T07:24:18.948Z,51.40
2022-11-30T07:26:47.208Z,58.20
2022-11-30T07:29:15.029Z,60.80
2022-11-30T07:31:43.395Z,57.00
2022-11-30T07:34:12.970Z,52.70
2022-11-30T07:36:40.736Z,61.40
2022-11-30T07:39:08.911Z,50.40
2022-11-30T07:41:36.557Z,57.30
2022-11-30T07:44:05.292Z,52.90
2022-11-30T07:46:35.921Z,50.90
2022-11-30T07:49:04.539Z,55.70
2022-11-30T07:51:32.721Z,53.80
2022-11-30T07:54:01.250Z,59.10
2022-11-30T07:56:29.275Z,51.10
2022-11-30T07:58:58.496Z,47.00
2022-11-30T08:01:28.597Z,54.40
2022-11-30T08:03:56.623Z,50.30
2022-11-30T08:06:28.648Z,54.50
2022-11-30T08:08:58.308Z,48.50
2022-11-30T08:11:28.058Z,48.30
2022-11-30T08:13:56.340Z,54.20
2022-11-30T08:16:25.178Z,54.50
2022-11-30T08:18:53.113Z,52.20
2022-11-30T08:21:21.259Z,53.70
2022-11-30T08:23:51.301Z,52.10
2022-11-30T08:26:20.252Z,51.70
2022-11-30T08:28:49.285Z,51.40
2022-11-30T08:31:21.507Z,59.50
2022-11-30T08:33:50.325Z,51.70
2022-11-30T08:36:20.003Z,52.50
2022-11-30T08:38:48.916Z,56.20
2022-11-30T08:41:19.240Z,50.10
2022-11-30T08:43:47.403Z,60.80
2022-11-30T08:46:49.228Z,50.40
2022-11-30T08:49:20.958Z,48.30
2022-11-30T08:54:43.011Z,48.30
2022-11-30T08:57:10.921Z,44.90
2022-11-30T08:59:38.708Z,52.20
2022-11-30T09:02:06.628Z,52.80
2022-11-30T09:04:35.142Z,51.00
2022-11-30T09:07:04.046Z,50.30
2022-11-30T09:09:32.831Z,55.90
2022-11-30T09:12:00.820Z,48.90
2022-11-30T09:14:28.977Z,53.50
2022-11-30T09:16:56.944Z,56.00
2022-11-30T09:19:25.012Z,46.60
2022-11-30T09:21:53.104Z,49.70
2022-11-30T09:24:21.183Z,48.00
2022-11-30T09:26:49.143Z,47.40
2022-11-30T09:29:16.835Z,48.80
2022-11-30T09:31:44.564Z,55.80
2022-11-30T09:34:14.886Z,45.90
2022-11-30T09:36:42.733Z,48.10
2022-11-30T09:39:11.112Z,48.40
2022-11-30T09:41:48.878Z,54.20
2022-11-30T09:44:23.553Z,47.80
2022-11-30T09:46:51.502Z,49.60
2022-11-30T09:49:24.186Z,44.80
2022-11-30T09:51:54.733Z,49.80
2022-11-30T09:54:38.159Z,47.10
2022-11-30T09:57:25.465Z,48.90
2022-11-30T09:59:57.743Z,39.80
2022-11-30T10:02:33.935Z,45.30
2022-11-30T10:05:02.183Z,40.70
2022-11-30T10:07:30.034Z,44.70
2022-11-30T10:10:44.746Z,45.80
2022-11-30T10:13:35.174Z,42.60
2022-11-30T10:16:07.287Z,46.00
2022-11-30T10:18:35.101Z,44.10
2022-11-30T10:21:03.806Z,43.60
2022-11-30T10:23:41.203Z,41.60
2022-11-30T10:26:13.974Z,47.60
2022-11-30T10:28:47.505Z,77.80
2022-11-30T10:31:16.336Z,49.10
2022-11-30T10:33:49.146Z,46.30
2022-11-30T10:36:17.110Z,53.20
2022-11-30T10:38:56.649Z,53.10
2022-11-30T10:41:50.798Z,54.80
2022-11-30T10:44:23.009Z,51.00
2022-11-30T10:47:13.867Z,47.90
2022-11-30T10:49:45.554Z,45.60
2022-11-30T10:52:17.629Z,46.90
2022-11-30T10:54:45.795Z,46.50
2022-11-30T10:57:14.786Z,51.80
2022-11-30T10:59:44.683Z,43.20
2022-11-30T11:02:31.512Z,46.10
2022-11-30T11:05:19.518Z,49.60
2022-11-30T11:08:01.247Z,51.80
2022-11-30T11:10:52.181Z,50.00
2022-11-30T11:13:40.534Z,48.70
2022-11-30T11:16:10.193Z,51.60
2022-11-30T11:19:04.177Z,51.70
2022-11-30T11:21:31.866Z,50.70
2022-11-30T11:23:59.472Z,50.00
2022-11-30T11:26:28.292Z,44.30
2022-11-30T11:29:02.748Z,49.30
2022-11-30T11:31:36.266Z,48.60
2022-11-30T11:34:05.641Z,53.00
2022-11-30T11:36:34.393Z,55.90
2022-11-30T11:39:03.699Z,49.40
2022-11-30T11:41:34.016Z,57.50
2022-11-30T11:44:21.349Z,52.10
2022-11-30T11:46:59.882Z,53.20
2022-11-30T11:49:32.634Z,45.50
2022-11-30T11:52:01.545Z,42.20
2022-11-30T11:54:48.847Z,44.00
2022-11-30T11:57:18.569Z,48.20
2022-11-30T12:00:02.007Z,46.60
2022-11-30T12:02:48.856Z,42.10
2022-11-30T12:05:19.967Z,45.60
2022-11-30T12:08:04.046Z,43.00
2022-11-30T12:10:51.883Z,42.50
2022-11-30T12:13:25.623Z,55.70
2022-11-30T12:15:53.733Z,52.50
2022-11-30T12:18:25.036Z,43.90
2022-11-30T12:20:56.367Z,39.40
2022-11-30T12:23:43.400Z,46.70
2022-11-30T12:29:01.861Z,42.50
2022-11-30T12:31:57.017Z,48.10
2022-11-30T12:34:37.732Z,41.60
2022-11-30T12:37:18.398Z,42.30
2022-11-30T12:40:06.437Z,50.50
2022-11-30T12:42:43.840Z,37.10
2022-11-30T12:45:23.899Z,41.20
2022-11-30T12:48:05.669Z,43.40
2022-11-30T12:50:38.043Z,44.40
2022-11-30T12:53:05.902Z,44.90
2022-11-30T12:55:48.446Z,41.30
2022-11-30T12:58:22.567Z,44.40
2022-11-30T13:01:02.913Z,45.30
2022-11-30T13:03:43.053Z,37.60
2022-11-30T13:06:16.983Z,43.00
2022-11-30T13:08:45.124Z,45.40
2022-11-30T13:11:18.727Z,40.50
2022-11-30T13:13:50.157Z,45.70
2022-11-30T13:16:18.878Z,41.90
2022-11-30T13:18:47.189Z,47.40
2022-11-30T13:21:28.040Z,45.70
2022-11-30T13:24:05.046Z,43.80
2022-11-30T13:26:48.207Z,53.50
2022-11-30T13:29:39.578Z,93.80
2022-11-30T13:32:48.544Z,84.40
2022-11-30T13:35:22.983Z,57.60
2022-11-30T13:38:28.210Z,95.60
2022-11-30T13:41:03.357Z,65.30
2022-11-30T13:43:35.209Z,84.80
2022-11-30T13:46:08.148Z,71.80
2022-11-30T13:48:41.453Z,50.80
2022-11-30T13:51:09.570Z,55.90
2022-11-30T13:53:39.253Z,59.70
2022-11-30T13:56:19.829Z,50.90
2022-11-30T13:59:20.249Z,50.60
2022-11-30T14:01:48.438Z,58.60
2022-11-30T14:04:16.460Z,53.60
2022-11-30T14:06:44.659Z,47.50
2022-11-30T14:09:17.491Z,52.50
2022-11-30T14:11:45.931Z,55.70
2022-11-30T14:14:32.850Z,52.30
2022-11-30T14:19:29.375Z,43.40
2022-11-30T14:21:58.612Z,43.40
2022-11-30T14:24:26.482Z,46.60
2022-11-30T14:26:54.552Z,47.70
2022-11-30T14:29:28.920Z,50.70
2022-11-30T14:32:12.597Z,48.00
2022-11-30T14:34:49.461Z,51.60
2022-11-30T14:37:25.255Z,50.30
2022-11-30T14:39:56.904Z,50.70
2022-11-30T14:42:28.711Z,51.60
2022-11-30T14:44:58.452Z,55.50
2022-11-30T14:47:28.083Z,45.90
2022-11-30T14:49:57.510Z,50.20
2022-11-30T14:52:37.661Z,52.80
2022-11-30T14:55:13.535Z,47.80
2022-11-30T14:58:06.928Z,46.70
2022-11-30T15:00:39.632Z,47.70
2022-11-30T15:03:17.900Z,47.90
2022-11-30T15:05:46.085Z,50.80
2022-11-30T15:08:15.283Z,51.50
2022-11-30T15:10:43.240Z,53.00
2022-11-30T15:13:13.340Z,45.90
2022-11-30T15:15:50.643Z,47.50
2022-11-30T15:18:19.435Z,48.50
2022-11-30T15:20:53.963Z,55.30
2022-11-30T15:23:22.481Z,49.90
2022-11-30T15:26:05.618Z,45.20
2022-11-30T15:28:37.398Z,44.10
2022-11-30T15:31:07.024Z,50.60
2022-11-30T15:33:40.828Z,53.80
2022-11-30T15:36:33.134Z,47.70
2022-11-30T15:38:56.893Z,50.60
2022-11-30T15:41:25.204Z,49.10
2022-11-30T15:43:54.714Z,56.10
2022-11-30T15:46:46.419Z,53.50
2022-11-30T15:49:17.384Z,53.00
2022-11-30T15:51:46.432Z,47.60
2022-11-30T15:54:15.557Z,54.30
2022-11-30T15:56:55.312Z,44.00
2022-11-30T15:59:24.978Z,47.00
2022-11-30T16:02:02.620Z,48.70
2022-11-30T16:04:49.735Z,43.60
2022-11-30T16:07:18.606Z,52.00
2022-11-30T16:09:47.214Z,46.10
2022-11-30T16:12:26.092Z,46.60
2022-11-30T16:14:53.891Z,48.90
2022-11-30T16:17:22.168Z,42.90
2022-11-30T16:19:50.069Z,45.90
2022-11-30T16:22:17.976Z,47.60
2022-11-30T16:24:45.766Z,45.60
2022-11-30T16:27:17.521Z,45.70
2022-11-30T16:29:50.657Z,43.30
2022-11-30T16:32:20.444Z,53.80
2022-11-30T16:34:53.002Z,43.90
2022-11-30T16:37:22.094Z,42.60
2022-11-30T16:39:51.073Z,46.90
2022-11-30T16:42:20.713Z,42.50
2022-11-30T16:44:48.662Z,45.90
2022-11-30T16:47:16.937Z,43.40
2022-11-30T16:49:45.493Z,44.40
2022-11-30T16:52:16.345Z,41.90
2022-11-30T16:54:44.424Z,43.20
2022-11-30T16:57:12.285Z,44.10
2022-11-30T16:59:40.368Z,39.10
2022-11-30T17:02:15.132Z,40.50
2022-11-30T17:04:43.365Z,42.80
2022-11-30T17:07:11.664Z,42.20
2022-11-30T17:09:39.708Z,37.50
2022-11-30T17:12:10.553Z,38.90
2022-11-30T17:14:39.225Z,40.90
2022-11-30T17:17:07.081Z,43.10
2022-11-30T17:19:35.931Z,39.40
2022-11-30T17:22:04.150Z,42.00
2022-11-30T17:24:32.430Z,39.90
2022-11-30T17:27:00.705Z,38.30
2022-11-30T17:29:28.872Z,40.20
2022-11-30T17:31:56.946Z,40.50
2022-11-30T17:34:26.252Z,41.40
2022-11-30T17:36:56.565Z,41.40
2022-11-30T17:39:24.212Z,38.50
2022-11-30T17:41:52.487Z,39.90
2022-11-30T17:44:20.462Z,42.10
2022-11-30T17:46:48.626Z,41.70
2022-11-30T17:49:17.227Z,41.70
2022-11-30T17:51:45.733Z,47.40
2022-11-30T17:54:14.378Z,66.70
2022-11-30T17:56:44.518Z,44.80
2022-11-30T17:59:13.603Z,49.90
2022-11-30T18:01:42.664Z,49.40
2022-11-30T18:04:10.778Z,43.10
2022-11-30T18:06:41.398Z,38.50
2022-11-30T18:09:09.673Z,42.40
2022-11-30T18:11:37.541Z,51.80
2022-11-30T18:14:05.408Z,38.90
2022-11-30T18:16:36.561Z,38.30
2022-11-30T18:19:12.027Z,39.80
2022-11-30T18:21:40.883Z,40.00
2022-11-30T18:24:09.977Z,40.40
2022-11-30T18:26:39.175Z,38.60
2022-11-30T18:29:07.856Z,48.40
2022-11-30T18:31:36.546Z,40.30
2022-11-30T18:34:06.258Z,40.70
2022-11-30T18:36:34.527Z,40.60
2022-11-30T18:39:02.340Z,40.30
2022-11-30T18:41:30.549Z,45.90
2022-11-30T18:43:58.737Z,43.80
2022-11-30T18:46:26.572Z,42.20
2022-11-30T18:48:54.695Z,40.50
2022-11-30T18:51:25.199Z,50.90
2022-11-30T18:53:57.771Z,46.30
2022-11-30T18:56:26.781Z,45.90
2022-11-30T18:58:56.565Z,46.50
2022-11-30T19:01:25.014Z,47.70
2022-11-30T19:03:53.770Z,46.70
2022-11-30T19:06:21.608Z,49.20
2022-11-30T19:08:49.298Z,50.30
2022-11-30T19:11:17.487Z,45.40
2022-11-30T19:13:46.039Z,43.60
2022-11-30T19:16:15.102Z,48.10
2022-11-30T19:18:45.025Z,45.30
2022-11-30T19:21:14.436Z,42.60
2022-11-30T19:23:42.197Z,42.20
2022-11-30T19:26:10.584Z,42.10
2022-11-30T19:28:38.852Z,42.00
2022-11-30T19:31:11.210Z,44.50
2022-11-30T19:33:39.809Z,45.20
2022-11-30T19:36:10.340Z,41.10
2022-11-30T19:38:38.637Z,42.30
2022-11-30T19:41:09.817Z,39.50
2022-11-30T19:43:38.495Z,54.60
2022-11-30T19:46:07.595Z,45.50
2022-11-30T19:48:36.374Z,45.40
2022-11-30T19:51:05.936Z,44.00
2022-11-30T19:53:34.199Z,44.70
2022-11-30T19:56:05.758Z,41.90
2022-11-30T19:58:34.291Z,39.70
2022-11-30T20:01:02.141Z,43.10
2022-11-30T20:03:32.626Z,42.60
2022-11-30T20:06:00.910Z,47.20
2022-11-30T20:08:29.858Z,47.00
2022-11-30T20:10:57.758Z,48.40
2022-11-30T20:13:27.483Z,52.10
2022-11-30T20:15:56.296Z,44.80
2022-11-30T20:18:24.080Z,47.80
2022-11-30T20:20:51.994Z,48.90
2022-11-30T20:23:22.287Z,52.80
2022-11-30T20:25:51.419Z,53.10
2022-11-30T20:28:19.385Z,45.50
2022-11-30T20:30:47.175Z,46.70
2022-11-30T20:33:15.215Z,50.80
2022-11-30T20:35:42.968Z,47.00
2022-11-30T20:38:10.843Z,47.60
2022-11-30T20:40:40.039Z,43.90
2022-11-30T20:43:08.433Z,43.80
2022-11-30T20:45:37.204Z,44.90
2022-11-30T20:48:07.906Z,45.40
2022-11-30T20:50:38.152Z,46.50
2022-11-30T20:53:06.541Z,49.30
2022-11-30T20:55:34.397Z,51.30
2022-11-30T20:58:02.564Z,54.90
2022-11-30T21:00:30.943Z,48.90
2022-11-30T21:02:58.708Z,49.10
2022-11-30T21:05:26.678Z,44.50
2022-11-30T21:07:55.023Z,46.00
2022-11-30T21:10:23.438Z,44.50
2022-11-30T21:12:52.626Z,43.50
2022-11-30T21:15:21.219Z,41.40
2022-11-30T21:17:49.549Z,45.90
2022-11-30T21:20:17.714Z,47.80
2022-11-30T21:22:45.523Z,44.00
2022-11-30T21:25:13.807Z,49.60
2022-11-30T21:27:43.404Z,44.00
2022-11-30T21:30:12.421Z,47.90
2022-11-30T21:32:40.576Z,41.10
2022-11-30T21:35:09.769Z,50.70
2022-11-30T21:37:37.504Z,49.40
2022-11-30T21:40:05.908Z,51.40
2022-11-30T21:42:36.439Z,54.30
2022-11-30T21:45:04.505Z,46.60
2022-11-30T21:47:32.683Z,45.30
2022-11-30T21:50:01.599Z,47.20
2022-11-30T21:52:29.744Z,59.80
2022-11-30T21:54:57.515Z,52.60
2022-11-30T21:57:25.368Z,54.50
2022-11-30T21:59:53.136Z,54.50
2022-11-30T22:02:20.960Z,57.90
2022-11-30T22:04:49.175Z,55.20
2022-11-30T22:07:16.970Z,49.50
2022-11-30T22:09:44.710Z,62.10
2022-11-30T22:12:12.479Z,57.10
2022-11-30T22:14:40.327Z,58.30
2022-11-30T22:17:08.962Z,56.50
2022-11-30T22:19:36.846Z,52.40
2022-11-30T22:22:04.847Z,55.90
2022-11-30T22:24:32.922Z,49.10
2022-11-30T22:27:00.828Z,54.30
2022-11-30T22:29:29.576Z,55.10
2022-11-30T22:31:58.105Z,53.80
2022-11-30T22:34:26.530Z,51.80
2022-11-30T22:36:54.123Z,57.10
2022-11-30T22:39:22.894Z,52.10
2022-11-30T22:41:55.756Z,51.10
2022-11-30T22:44:25.827Z,47.70
2022-11-30T22:46:55.820Z,55.60
2022-11-30T22:49:24.596Z,56.80
2022-11-30T22:51:52.860Z,54.00
2022-11-30T22:54:20.853Z,53.30
2022-11-30T22:56:48.540Z,50.10
2022-11-30T22:59:16.519Z,51.10
2022-11-30T23:01:45.669Z,47.90
2022-11-30T23:04:15.878Z,43.50
2022-11-30T23:06:45.262Z,45.20
2022-11-30T23:09:20.918Z,49.20
2022-11-30T23:11:49.295Z,48.50
2022-11-30T23:14:17.673Z,45.30
2022-11-30T23:16:46.074Z,44.40
2022-11-30T23:19:15.353Z,41.90
2022-11-30T23:21:44.989Z,50.10
2022-11-30T23:24:15.687Z,54.30
2022-11-30T23:26:43.865Z,49.50
2022-11-30T23:29:13.367Z,46.50
2022-11-30T23:31:42.301Z,43.90
2022-11-30T23:34:11.640Z,52.50
2022-11-30T23:36:39.381Z,45.30
2022-11-30T23:39:09.568Z,42.10
2022-11-30T23:41:38.125Z,45.70
2022-11-30T23:44:07.231Z,40.80
2022-11-30T23:46:35.230Z,47.60
2022-11-30T23:49:03.577Z,46.20
2022-11-30T23:51:31.312Z,41.80
2022-11-30T23:53:58.919Z,47.10
2022-11-30T23:56:27.394Z,43.40
2022-11-30T23:58:55.124Z,47.30
